This is the latest recevied weather packets stored in our database for station/object UR7D-12. If no packets are shown the sender has not sent any weather packets the latest 10 day(s).
| Time | Temp. | Humidity | Pressure | Rain* | Wind** | Luminosity | Snow |
|---|---|---|---|---|---|---|---|
| 1777925132 | 17.78° C | 43% | 990.1 hPa | 0 mm | - | - | - |
| 1777922730 | 18.89° C | 39% | 990.3 hPa | 0 mm | - | - | - |
| 1777922129 | 18.89° C | 38% | 990.2 hPa | 0 mm | - | - | - |
| 1777921830 | 19.44° C | 37% | 990.2 hPa | 0 mm | - | - | - |
| 1777919430 | 18.89° C | 44% | 990.1 hPa | 0 mm | - | - | - |
| 1777914324 | 22.78° C | 34% | 989.6 hPa | 0 mm | - | - | - |
| 1777906217 | 23.89° C | 31% | 990.1 hPa | 0 mm | - | - | - |
| 1777903441 | 23.89° C | 32% | 990.7 hPa | 0 mm | - | - | - |
| 1777903141 | 23.33° C | 33% | 990.7 hPa | 0 mm | - | - | - |
| 1777901940 | 23.33° C | 33% | 991 hPa | 0 mm | - | - | - |
| 1777901041 | 23.89° C | 33% | 991.1 hPa | 0 mm | - | - | - |
| 1777900439 | 23.89° C | 34% | 991.2 hPa | 0 mm | - | - | - |
| 1777900138 | 23.33° C | 34% | 991.2 hPa | 0 mm | - | - | - |
| 1777898637 | 22.78° C | 34% | 991.7 hPa | 0 mm | - | - | - |
| 1777898036 | 22.78° C | 35% | 991.7 hPa | 0 mm | - | - | - |
| 1777897736 | 22.78° C | 36% | 991.8 hPa | 0 mm | - | - | - |
| 1777897135 | 22.22° C | 34% | 991.9 hPa | 0 mm | - | - | - |
| 1777896837 | 22.78° C | 35% | 991.8 hPa | 0 mm | - | - | - |
| 1777896535 | 22.78° C | 34% | 991.9 hPa | 0 mm | - | - | - |
| 1777895634 | 22.22° C | 35% | 992 hPa | 0 mm | - | - | - |
| 1777895334 | 22.22° C | 35% | 992.2 hPa | 0 mm | - | - | - |
| 1777893834 | 22.22° C | 36% | 992.1 hPa | 0 mm | - | - | - |
| 1777892932 | 21.67° C | 38% | 992.2 hPa | 0 mm | - | - | - |
| 1777892633 | 21.67° C | 37% | 992.4 hPa | 0 mm | - | - | - |
| 1777891130 | 21.11° C | 38% | 992.7 hPa | 0 mm | - | - | - |
* Rain latest hour (hover to see other rain measurements)
** Current wind speed in m/s (hover to see current wind gust speed)